createdAt,value
2023-01-10T00:05:14.160Z,1.67
2023-01-10T00:07:40.943Z,1.63
2023-01-10T00:10:09.904Z,1.95
2023-01-10T00:12:59.619Z,1.55
2023-01-10T00:15:35.469Z,2.10
2023-01-10T00:18:06.036Z,1.63
2023-01-10T00:20:41.725Z,1.60
2023-01-10T00:23:14.079Z,1.58
2023-01-10T00:26:02.679Z,1.92
2023-01-10T00:28:46.526Z,1.67
2023-01-10T00:31:18.351Z,1.67
2023-01-10T00:33:54.820Z,1.50
2023-01-10T00:36:21.447Z,1.50
2023-01-10T00:41:37.920Z,1.60
2023-01-10T00:44:25.871Z,1.52
2023-01-10T00:46:58.656Z,1.50
2023-01-10T00:49:44.161Z,1.73
2023-01-10T00:52:20.187Z,1.80
2023-01-10T00:54:52.652Z,2.50
2023-01-10T00:57:19.263Z,1.88
2023-01-10T00:59:51.173Z,2.38
2023-01-10T01:02:26.634Z,2.05
2023-01-10T01:07:44.224Z,1.90
2023-01-10T01:10:28.553Z,2.20
2023-01-10T01:13:11.857Z,2.38
2023-01-10T01:18:30.701Z,2.42
2023-01-10T01:21:16.536Z,2.03
2023-01-10T01:23:57.112Z,2.78
2023-01-10T01:26:40.935Z,2.35
2023-01-10T01:29:43.021Z,2.50
2023-01-10T01:32:12.822Z,2.85
2023-01-10T01:34:39.518Z,2.95
2023-01-10T01:37:07.052Z,3.10
2023-01-10T01:39:33.467Z,3.60
2023-01-10T01:42:00.799Z,3.40
2023-01-10T01:44:33.938Z,3.55
2023-01-10T01:47:09.063Z,3.22
2023-01-10T01:49:40.033Z,3.58
2023-01-10T01:52:18.747Z,3.83
2023-01-10T01:54:45.186Z,3.53
2023-01-10T01:57:18.092Z,3.90
2023-01-10T01:59:47.870Z,3.50
2023-01-10T02:02:41.434Z,3.90
2023-01-10T02:05:31.067Z,2.90
2023-01-10T02:08:04.805Z,3.67
2023-01-10T02:10:59.524Z,3.28
2023-01-10T02:13:43.955Z,3.25
2023-01-10T02:16:19.067Z,3.42
2023-01-10T02:22:27.233Z,3.47
2023-01-10T02:25:30.455Z,2.70
2023-01-10T02:28:20.385Z,2.85
2023-01-10T02:30:46.870Z,3.10
2023-01-10T02:33:50.930Z,2.90
2023-01-10T02:36:26.668Z,3.15
2023-01-10T02:39:20.620Z,2.70
2023-01-10T02:42:09.491Z,3.53
2023-01-10T02:44:50.050Z,2.80
2023-01-10T02:47:19.364Z,3.05
2023-01-10T02:49:51.276Z,3.10
2023-01-10T02:52:23.314Z,3.25
2023-01-10T02:55:03.008Z,3.38
2023-01-10T02:57:56.749Z,2.40
2023-01-10T03:00:57.658Z,3.05
2023-01-10T03:03:59.917Z,2.97
2023-01-10T03:06:31.660Z,2.85
2023-01-10T03:09:16.237Z,2.85
2023-01-10T03:11:52.406Z,2.88
2023-01-10T03:14:25.619Z,3.20
2023-01-10T03:17:05.823Z,3.50
2023-01-10T03:22:23.957Z,3.03
2023-01-10T03:24:58.774Z,3.50
2023-01-10T03:27:43.480Z,3.38
2023-01-10T03:30:26.605Z,3.10
2023-01-10T03:32:56.219Z,3.78
2023-01-10T03:35:31.217Z,3.03
2023-01-10T03:43:46.610Z,3.58
2023-01-10T03:46:33.770Z,3.55
2023-01-10T03:51:34.909Z,3.35
2023-01-10T03:57:02.818Z,3.42
2023-01-10T03:59:53.169Z,3.45
2023-01-10T04:02:20.575Z,3.22
2023-01-10T04:04:57.770Z,3.47
2023-01-10T04:07:25.275Z,4.00
2023-01-10T04:09:51.832Z,3.65
2023-01-10T04:12:25.705Z,4.10
2023-01-10T04:14:58.906Z,3.50
2023-01-10T04:17:43.449Z,3.70
2023-01-10T04:20:18.093Z,3.72
2023-01-10T04:22:49.705Z,3.90
2023-01-10T04:25:21.040Z,4.25
2023-01-10T04:27:52.861Z,3.90
2023-01-10T04:30:34.480Z,4.03
2023-01-10T04:33:01.147Z,3.50
2023-01-10T04:35:31.341Z,3.70
2023-01-10T04:38:02.246Z,4.25
2023-01-10T04:40:30.582Z,5.25
2023-01-10T04:43:10.321Z,3.83
2023-01-10T04:53:05.762Z,3.83
2023-01-10T04:55:33.075Z,4.00
2023-01-10T04:58:01.836Z,3.38
2023-01-10T05:00:31.355Z,3.63
2023-01-10T05:05:44.027Z,4.35
2023-01-10T05:08:20.664Z,3.80
2023-01-10T05:10:50.073Z,3.88
2023-01-10T05:13:19.492Z,3.83
2023-01-10T05:15:51.242Z,3.95
2023-01-10T05:18:22.395Z,4.10
2023-01-10T05:21:00.489Z,3.58
2023-01-10T05:23:31.203Z,4.22
2023-01-10T05:28:34.014Z,3.67
2023-01-10T05:31:00.710Z,5.03
2023-01-10T05:33:27.636Z,4.03
2023-01-10T05:35:54.082Z,3.95
2023-01-10T05:38:20.569Z,4.15
2023-01-10T05:40:47.048Z,5.00
2023-01-10T05:43:13.588Z,4.70
2023-01-10T05:45:40.076Z,4.88
2023-01-10T05:48:06.982Z,3.40
2023-01-10T05:50:34.653Z,3.20
2023-01-10T05:53:05.601Z,3.40
2023-01-10T05:56:04.576Z,2.75
2023-01-10T05:58:47.425Z,3.80
2023-01-10T06:01:21.712Z,3.78
2023-01-10T06:04:13.997Z,3.35
2023-01-10T06:07:09.594Z,3.65
2023-01-10T06:09:44.153Z,3.42
2023-01-10T06:12:13.711Z,3.42
2023-01-10T06:14:43.088Z,4.20
2023-01-10T06:17:10.885Z,3.72
2023-01-10T06:19:42.301Z,3.55
2023-01-10T06:22:15.688Z,3.60
2023-01-10T06:25:02.336Z,3.33
2023-01-10T06:27:42.358Z,3.83
2023-01-10T06:30:15.423Z,3.97
2023-01-10T06:32:51.632Z,3.45
2023-01-10T06:35:26.760Z,3.53
2023-01-10T06:38:07.317Z,3.97
2023-01-10T06:40:40.840Z,2.95
2023-01-10T06:43:31.432Z,3.10
2023-01-10T06:45:58.190Z,3.20
2023-01-10T06:48:30.022Z,3.03
2023-01-10T06:58:24.891Z,3.05
2023-01-10T07:01:29.859Z,3.17
2023-01-10T07:04:07.385Z,3.83
2023-01-10T07:06:43.417Z,3.85
2023-01-10T07:09:16.536Z,4.63
2023-01-10T07:11:53.008Z,3.40
2023-01-10T07:14:27.914Z,4.53
2023-01-10T07:17:07.996Z,4.10
2023-01-10T07:19:56.437Z,3.70
2023-01-10T07:22:22.967Z,3.67
2023-01-10T07:24:58.069Z,3.45
2023-01-10T07:27:31.562Z,3.25
2023-01-10T07:30:11.183Z,3.17
2023-01-10T07:32:57.190Z,3.00
2023-01-10T07:35:24.797Z,3.65
2023-01-10T07:43:27.783Z,3.25
2023-01-10T07:45:57.650Z,3.25
2023-01-10T07:49:05.041Z,3.13
2023-01-10T07:51:36.528Z,3.47
2023-01-10T07:58:14.047Z,3.55
2023-01-10T08:01:21.382Z,2.47
2023-01-10T08:05:00.278Z,3.80
2023-01-10T08:10:57.451Z,3.08
2023-01-10T08:13:58.157Z,2.53
2023-01-10T08:16:38.104Z,3.03
2023-01-10T08:22:18.326Z,2.83
2023-01-10T08:27:49.775Z,3.30
2023-01-10T08:35:30.996Z,2.60
2023-01-10T08:40:31.788Z,2.75
2023-01-10T08:43:09.761Z,3.30
2023-01-10T08:45:52.682Z,2.55
2023-01-10T08:51:05.013Z,3.13
2023-01-10T08:53:41.950Z,2.95
2023-01-10T08:56:13.966Z,3.33
2023-01-10T08:58:45.798Z,3.20
2023-01-10T09:03:54.558Z,3.50
2023-01-10T09:06:34.215Z,2.97
2023-01-10T09:09:08.528Z,3.05
2023-01-10T09:16:36.763Z,3.95
2023-01-10T09:19:36.417Z,4.22
2023-01-10T09:22:11.587Z,3.25
2023-01-10T09:24:48.652Z,3.80
2023-01-10T09:27:35.475Z,3.67
2023-01-10T09:30:06.619Z,3.20
2023-01-10T09:32:42.494Z,3.75
2023-01-10T09:35:17.834Z,2.83
2023-01-10T09:38:01.247Z,3.50
2023-01-10T09:40:48.383Z,3.75
2023-01-10T09:43:39.964Z,3.53
2023-01-10T09:46:43.894Z,2.80
2023-01-10T09:59:45.628Z,3.17
2023-01-10T10:05:45.741Z,3.47
2023-01-10T10:08:30.218Z,3.70
2023-01-10T10:12:18.288Z,3.58
2023-01-10T10:18:53.360Z,3.17
2023-01-10T10:21:48.934Z,3.30
2023-01-10T10:28:33.456Z,3.80
2023-01-10T10:35:24.054Z,3.50
2023-01-10T10:37:53.543Z,3.08
2023-01-10T10:40:25.782Z,2.83
2023-01-10T10:42:55.064Z,3.70
2023-01-10T10:45:52.035Z,2.53
2023-01-10T10:53:29.129Z,2.67
2023-01-10T10:56:05.470Z,3.43
2023-01-10T10:58:40.927Z,2.88
2023-01-10T11:01:15.652Z,3.40
2023-01-10T11:03:55.312Z,3.10
2023-01-10T11:06:37.425Z,2.75
2023-01-10T11:09:07.724Z,2.90
2023-01-10T11:11:49.522Z,3.28
2023-01-10T11:14:46.923Z,2.90
2023-01-10T11:17:22.801Z,4.28
2023-01-10T11:20:16.577Z,2.92
2023-01-10T11:22:53.971Z,3.60
2023-01-10T11:25:23.089Z,3.10
2023-01-10T11:27:59.951Z,3.00
2023-01-10T11:30:33.765Z,3.17
2023-01-10T11:33:03.107Z,2.50
2023-01-10T11:35:37.074Z,2.63
2023-01-10T11:41:08.637Z,2.63
2023-01-10T11:43:42.231Z,2.25
2023-01-10T11:49:08.446Z,2.75
2023-01-10T11:51:41.369Z,3.03
2023-01-10T11:57:08.835Z,1.95
2023-01-10T12:00:03.069Z,2.92
2023-01-10T12:02:57.386Z,2.97
2023-01-10T12:05:44.661Z,2.47
2023-01-10T12:08:39.355Z,2.95
2023-01-10T12:11:45.535Z,2.45
2023-01-10T12:15:21.430Z,3.00
2023-01-10T12:18:17.483Z,3.40
2023-01-10T12:20:58.827Z,2.30
2023-01-10T12:23:44.268Z,2.92
2023-01-10T12:26:20.235Z,3.10
2023-01-10T12:29:06.931Z,2.60
2023-01-10T12:31:41.315Z,3.47
2023-01-10T12:34:17.321Z,2.95
2023-01-10T12:37:38.007Z,3.17
2023-01-10T12:40:45.594Z,3.92
2023-01-10T12:43:38.499Z,2.40
2023-01-10T12:47:10.077Z,2.88
2023-01-10T12:51:15.928Z,2.78
2023-01-10T12:59:09.727Z,3.00
2023-01-10T13:06:37.310Z,2.65
2023-01-10T13:15:40.523Z,2.45
2023-01-10T13:18:49.119Z,2.85
2023-01-10T13:21:59.316Z,2.80
2023-01-10T13:25:56.131Z,3.03
2023-01-10T14:14:04.564Z,2.63
2023-01-10T14:17:23.926Z,2.83
2023-01-10T14:27:24.916Z,3.03
2023-01-10T14:51:47.003Z,3.28
2023-01-10T14:54:25.030Z,3.08
2023-01-10T15:04:37.721Z,3.88
2023-01-10T15:11:29.280Z,3.38
2023-01-10T15:14:19.005Z,4.70
2023-01-10T15:16:49.267Z,3.17
2023-01-10T15:40:24.453Z,2.90
2023-01-10T16:22:48.557Z,4.30
2023-01-10T16:25:39.293Z,3.75
2023-01-10T16:55:35.523Z,4.65
2023-01-10T17:03:19.202Z,4.10
2023-01-10T17:07:49.810Z,4.00
2023-01-10T17:10:52.476Z,3.53
2023-01-10T17:24:58.964Z,4.95
2023-01-10T17:28:01.372Z,5.45
2023-01-10T17:40:30.707Z,5.63
2023-01-10T17:46:22.203Z,4.95
2023-01-10T17:48:59.595Z,5.75
2023-01-10T17:51:54.986Z,6.15
2023-01-10T17:58:12.880Z,5.18
2023-01-10T18:01:11.720Z,4.65
2023-01-10T18:06:24.039Z,3.28
2023-01-10T18:08:57.376Z,4.65
2023-01-10T18:11:25.590Z,5.13
2023-01-10T18:14:03.262Z,3.85
2023-01-10T18:16:29.837Z,3.60
2023-01-10T18:18:58.772Z,4.65
2023-01-10T18:21:29.458Z,4.03
2023-01-10T18:24:27.501Z,5.70
2023-01-10T18:27:05.224Z,4.78
2023-01-10T18:36:50.520Z,5.60
2023-01-10T18:39:38.503Z,5.90
2023-01-10T18:42:19.259Z,5.38
2023-01-10T18:44:56.102Z,5.13
2023-01-10T18:47:37.920Z,5.05
2023-01-10T18:50:08.146Z,4.85
2023-01-10T18:52:36.653Z,4.53
2023-01-10T18:58:41.808Z,5.78
2023-01-10T19:01:17.954Z,15.88
2023-01-10T19:03:50.125Z,9.82
2023-01-10T19:06:18.963Z,6.20
2023-01-10T19:08:54.286Z,13.32
2023-01-10T19:11:21.112Z,5.55
2023-01-10T19:13:51.327Z,6.07
2023-01-10T19:19:12.274Z,4.32
2023-01-10T19:21:48.175Z,4.25
2023-01-10T19:24:24.997Z,5.07
2023-01-10T19:26:52.053Z,4.60
2023-01-10T19:29:30.398Z,4.47
2023-01-10T19:31:59.813Z,5.55
2023-01-10T19:34:29.387Z,6.10
2023-01-10T19:37:28.968Z,5.88
2023-01-10T19:40:11.453Z,5.78
2023-01-10T19:42:41.704Z,4.90
2023-01-10T19:45:18.954Z,4.75
2023-01-10T19:47:45.571Z,4.82
2023-01-10T19:50:13.507Z,5.63
2023-01-10T19:52:48.876Z,4.97
2023-01-10T19:55:24.976Z,5.70
2023-01-10T20:06:03.495Z,6.18
2023-01-10T20:11:25.893Z,5.78
2023-01-10T20:14:02.502Z,5.00
2023-01-10T20:16:36.037Z,6.47
2023-01-10T20:19:25.821Z,6.00
2023-01-10T20:21:59.220Z,5.53
2023-01-10T20:27:16.951Z,5.18
2023-01-10T20:32:15.298Z,5.97
2023-01-10T20:35:02.147Z,6.30
2023-01-10T20:37:33.230Z,5.45
2023-01-10T20:40:04.511Z,6.15
2023-01-10T20:42:33.075Z,5.78
2023-01-10T20:44:59.806Z,5.75
2023-01-10T20:47:30.872Z,7.45
2023-01-10T20:49:57.551Z,5.38
2023-01-10T20:52:24.396Z,5.47
2023-01-10T20:57:26.521Z,4.82
2023-01-10T20:59:58.433Z,5.35
2023-01-10T21:02:29.853Z,5.38
2023-01-10T21:05:06.813Z,5.05
2023-01-10T21:07:37.376Z,5.00
2023-01-10T21:10:28.245Z,5.13
2023-01-10T21:12:57.404Z,5.50
2023-01-10T21:15:53.958Z,5.30
2023-01-10T21:18:29.003Z,4.82
2023-01-10T21:21:01.126Z,5.90
2023-01-10T21:23:33.299Z,5.57
2023-01-10T21:26:03.182Z,4.75
2023-01-10T21:28:33.458Z,5.33
2023-01-10T21:31:24.131Z,4.70
2023-01-10T21:36:23.726Z,5.47
2023-01-10T21:38:59.685Z,4.68
2023-01-10T21:41:46.048Z,4.57
2023-01-10T21:44:15.846Z,4.65
2023-01-10T21:47:15.405Z,4.40
2023-01-10T21:49:42.401Z,4.55
2023-01-10T21:54:43.573Z,4.47
2023-01-10T21:57:28.009Z,4.50
2023-01-10T22:02:35.525Z,4.40
2023-01-10T22:05:02.853Z,3.97
2023-01-10T22:07:29.725Z,4.55
2023-01-10T22:10:09.156Z,3.97
2023-01-10T22:12:39.881Z,4.05
2023-01-10T22:15:11.413Z,4.20
2023-01-10T22:17:38.142Z,5.15
2023-01-10T22:20:09.133Z,3.83
2023-01-10T22:22:37.442Z,3.95
2023-01-10T22:25:04.890Z,3.65
2023-01-10T22:27:31.558Z,3.53
2023-01-10T22:30:30.392Z,3.88
2023-01-10T22:33:00.493Z,3.67
2023-01-10T22:35:30.391Z,3.55
2023-01-10T22:37:56.979Z,3.72
2023-01-10T22:40:24.083Z,3.95
2023-01-10T22:42:55.039Z,3.92
2023-01-10T22:45:21.630Z,5.20
2023-01-10T22:47:53.263Z,4.68
2023-01-10T22:50:23.303Z,3.80
2023-01-10T22:52:54.483Z,3.63
2023-01-10T22:55:22.522Z,4.47
2023-01-10T22:57:56.336Z,4.10
2023-01-10T23:00:27.672Z,3.28
2023-01-10T23:03:13.086Z,3.70
2023-01-10T23:05:48.779Z,3.20
2023-01-10T23:08:28.435Z,3.63
2023-01-10T23:10:58.473Z,4.10
2023-01-10T23:13:34.610Z,3.00
2023-01-10T23:16:27.696Z,3.28
2023-01-10T23:18:59.443Z,3.60
2023-01-10T23:21:29.185Z,3.63
2023-01-10T23:24:07.666Z,4.03
2023-01-10T23:26:35.835Z,3.60
2023-01-10T23:29:05.516Z,3.90
2023-01-10T23:31:34.631Z,3.08
2023-01-10T23:37:11.316Z,3.45
2023-01-10T23:39:54.440Z,3.30
2023-01-10T23:42:40.016Z,3.20
2023-01-10T23:45:08.001Z,3.75
2023-01-10T23:48:04.839Z,3.45
2023-01-10T23:50:38.716Z,2.88
2023-01-10T23:53:12.424Z,3.78
2023-01-10T23:55:44.599Z,2.88
2023-01-10T23:58:14.342Z,3.90
